createdAt,value
2019-05-10T00:02:38.690Z,73.67
2019-05-10T00:06:04.927Z,73.73
2019-05-10T00:09:12.691Z,73.74
2019-05-10T00:12:42.971Z,73.71
2019-05-10T00:16:09.816Z,74.14
2019-05-10T00:19:18.523Z,74.25
2019-05-10T00:22:27.268Z,74.58
2019-05-10T00:25:36.082Z,74.92
2019-05-10T00:28:44.893Z,75.12
2019-05-10T00:31:53.544Z,74.92
2019-05-10T00:35:02.358Z,74.81
2019-05-10T00:38:11.124Z,74.52
2019-05-10T00:41:20.048Z,74.39
2019-05-10T00:44:28.760Z,74.51
2019-05-10T00:47:37.387Z,74.28
2019-05-10T00:50:46.110Z,74.41
2019-05-10T00:53:54.635Z,74.23
2019-05-10T00:57:03.279Z,74.40
2019-05-10T01:00:13.493Z,74.53
2019-05-10T01:03:51.712Z,74.65
2019-05-10T01:07:00.345Z,74.71
2019-05-10T01:10:09.229Z,74.69
2019-05-10T01:13:17.894Z,74.65
2019-05-10T01:16:26.597Z,74.13
2019-05-10T01:19:35.252Z,74.53
2019-05-10T01:22:43.865Z,74.92
2019-05-10T01:25:52.595Z,75.00
2019-05-10T01:29:01.165Z,75.33
2019-05-10T01:32:09.904Z,75.43
2019-05-10T01:35:18.644Z,75.43
2019-05-10T01:38:37.465Z,75.49
2019-05-10T01:41:46.083Z,75.39
2019-05-10T01:44:54.680Z,75.72
2019-05-10T01:48:03.223Z,75.78
2019-05-10T01:51:11.851Z,75.71
2019-05-10T01:54:20.473Z,75.68
2019-05-10T01:57:29.098Z,75.70
2019-05-10T02:00:48.023Z,75.71
2019-05-10T02:03:56.635Z,76.02
2019-05-10T02:07:05.300Z,76.36
2019-05-10T02:10:14.214Z,75.99
2019-05-10T02:13:22.721Z,76.18
2019-05-10T02:16:31.547Z,76.06
2019-05-10T02:19:40.315Z,76.56
2019-05-10T02:22:48.976Z,76.67
2019-05-10T02:26:09.082Z,76.64
2019-05-10T02:29:08.033Z,76.58
2019-05-10T02:32:16.731Z,76.63
2019-05-10T02:35:25.545Z,76.86
2019-05-10T02:38:34.328Z,76.90
2019-05-10T02:41:44.468Z,76.83
2019-05-10T02:45:03.730Z,76.56
2019-05-10T02:48:12.540Z,76.59
2019-05-10T02:51:31.930Z,76.67
2019-05-10T02:54:40.648Z,76.63
2019-05-10T02:57:49.538Z,76.98
2019-05-10T03:01:01.826Z,77.01
2019-05-10T03:04:23.322Z,76.77
2019-05-10T03:07:37.337Z,76.95
2019-05-10T03:10:57.867Z,77.01
2019-05-10T03:14:21.144Z,77.01
2019-05-10T03:17:30.166Z,77.30
2019-05-10T03:20:40.112Z,77.32
2019-05-10T03:23:50.665Z,77.26
2019-05-10T03:26:59.255Z,77.42
2019-05-10T03:30:06.955Z,77.49
2019-05-10T03:33:12.745Z,77.47
2019-05-10T03:36:21.337Z,77.37
2019-05-10T03:39:31.436Z,77.15
2019-05-10T03:42:40.029Z,76.95
2019-05-10T03:45:48.652Z,76.91
2019-05-10T03:48:55.889Z,76.91
2019-05-10T03:52:04.595Z,77.01
2019-05-10T03:55:13.418Z,76.91
2019-05-10T03:58:32.225Z,77.06
2019-05-10T04:01:40.791Z,77.24
2019-05-10T04:04:49.588Z,77.40
2019-05-10T04:07:58.344Z,77.16
2019-05-10T04:11:06.983Z,77.12
2019-05-10T04:14:15.623Z,76.98
2019-05-10T04:17:24.174Z,76.82
2019-05-10T04:20:32.887Z,77.01
2019-05-10T04:23:41.113Z,76.70
2019-05-10T04:26:49.821Z,76.45
2019-05-10T04:29:58.722Z,75.97
2019-05-10T04:33:07.431Z,75.91
2019-05-10T04:36:16.160Z,75.69
2019-05-10T04:39:24.813Z,75.29
2019-05-10T04:42:33.462Z,75.39
2019-05-10T04:45:40.640Z,75.56
2019-05-10T04:48:49.377Z,75.80
2019-05-10T04:51:57.986Z,76.19
2019-05-10T04:55:07.522Z,77.11
2019-05-10T04:58:16.207Z,77.25
2019-05-10T05:01:24.943Z,78.33
2019-05-10T05:04:33.676Z,80.19
2019-05-10T05:07:42.334Z,80.74
2019-05-10T05:10:51.023Z,81.61
2019-05-10T05:13:59.724Z,82.07
2019-05-10T05:17:08.392Z,81.97
2019-05-10T05:20:17.046Z,81.77
2019-05-10T05:23:24.310Z,81.27
2019-05-10T05:26:33.048Z,81.32
2019-05-10T05:29:41.835Z,80.97
2019-05-10T05:32:52.855Z,81.21
2019-05-10T05:36:02.359Z,80.78
2019-05-10T05:39:11.391Z,80.14
2019-05-10T05:42:22.290Z,79.77
2019-05-10T05:45:42.001Z,79.95
2019-05-10T05:48:51.552Z,80.18
2019-05-10T05:52:00.328Z,80.52
2019-05-10T05:55:09.519Z,79.40
2019-05-10T05:58:26.470Z,78.97
2019-05-10T06:01:29.563Z,78.66
2019-05-10T06:04:40.930Z,78.28
2019-05-10T06:07:52.138Z,78.77
2019-05-10T06:11:00.076Z,77.66
2019-05-10T06:14:12.533Z,78.24
2019-05-10T06:17:23.708Z,78.19
2019-05-10T06:20:29.712Z,78.97
2019-05-10T06:23:38.414Z,78.67
2019-05-10T06:26:47.070Z,78.28
2019-05-10T06:29:55.774Z,78.32
2019-05-10T06:33:12.704Z,78.92
2019-05-10T06:36:14.782Z,78.79
2019-05-10T06:39:23.575Z,78.63
2019-05-10T06:42:51.447Z,78.97
2019-05-10T06:46:00.064Z,77.97
2019-05-10T06:49:09.665Z,78.52
2019-05-10T06:52:21.894Z,78.87
2019-05-10T06:55:28.053Z,78.36
2019-05-10T06:58:46.988Z,78.14
2019-05-10T07:01:55.788Z,77.55
2019-05-10T07:05:04.871Z,78.58
2019-05-10T07:08:23.901Z,77.70
2019-05-10T07:11:51.994Z,76.94
2019-05-10T07:15:03.289Z,76.60
2019-05-10T07:18:11.037Z,76.08
2019-05-10T07:21:19.675Z,75.62
2019-05-10T07:24:28.418Z,76.37
2019-05-10T07:27:38.674Z,76.68
2019-05-10T07:30:48.751Z,77.96
2019-05-10T07:33:57.368Z,78.45
2019-05-10T07:37:06.039Z,80.43
2019-05-10T07:40:14.901Z,81.10
2019-05-10T07:43:26.400Z,81.27
2019-05-10T07:46:33.916Z,82.39
2019-05-10T07:49:52.819Z,82.73
2019-05-10T07:53:01.470Z,83.84
2019-05-10T07:56:10.182Z,84.41
2019-05-10T07:59:21.985Z,84.72
2019-05-10T08:02:29.258Z,85.63
2019-05-10T08:05:39.160Z,85.56
2019-05-10T08:08:49.658Z,85.31
2019-05-10T08:12:03.326Z,85.75
2019-05-10T08:15:09.697Z,85.59
2019-05-10T08:18:23.479Z,85.54
2019-05-10T08:21:28.787Z,84.84
2019-05-10T08:24:37.387Z,83.97
2019-05-10T08:27:50.419Z,83.14
2019-05-10T08:30:58.888Z,82.16
2019-05-10T08:34:05.287Z,81.11
2019-05-10T08:37:19.322Z,80.33
2019-05-10T08:40:26.058Z,80.60
2019-05-10T08:43:38.759Z,79.69
2019-05-10T08:46:46.637Z,78.71
2019-05-10T08:50:10.851Z,78.74
2019-05-10T08:53:10.943Z,78.77
2019-05-10T08:56:21.586Z,78.65
2019-05-10T08:59:30.678Z,79.03
2019-05-10T09:02:36.349Z,77.26
2019-05-10T09:05:55.367Z,77.13
2019-05-10T09:09:08.507Z,77.23
2019-05-10T09:12:17.370Z,77.62
2019-05-10T09:15:26.148Z,77.94
2019-05-10T09:18:38.077Z,78.28
2019-05-10T09:21:49.695Z,78.05
2019-05-10T09:24:55.498Z,78.59
2019-05-10T09:28:11.722Z,79.55
2019-05-10T09:31:20.836Z,78.71
2019-05-10T09:34:27.136Z,79.45
2019-05-10T09:37:35.242Z,80.70
2019-05-10T09:40:51.246Z,80.73
2019-05-10T09:43:54.351Z,80.81
2019-05-10T09:47:03.875Z,82.01
2019-05-10T09:50:12.743Z,81.41
2019-05-10T09:53:25.630Z,81.81
2019-05-10T09:56:32.905Z,81.61
2019-05-10T09:59:42.027Z,80.79
2019-05-10T10:02:56.454Z,80.19
2019-05-10T10:06:07.434Z,79.64
2019-05-10T10:09:11.338Z,80.40
2019-05-10T10:12:20.188Z,81.01
2019-05-10T10:15:33.927Z,80.85
2019-05-10T10:18:39.245Z,80.48
2019-05-10T10:21:47.868Z,80.53
2019-05-10T10:25:07.467Z,80.18
2019-05-10T10:28:19.116Z,79.07
2019-05-10T10:31:33.176Z,78.09
2019-05-10T10:34:42.818Z,78.59
2019-05-10T10:37:49.002Z,78.77
2019-05-10T10:40:57.758Z,78.56
2019-05-10T10:44:08.422Z,77.80
2019-05-10T10:47:17.966Z,77.16
2019-05-10T10:50:37.036Z,76.07
2019-05-10T10:53:47.012Z,76.44
2019-05-10T10:56:59.247Z,77.29
2019-05-10T11:00:07.742Z,77.25
2019-05-10T11:03:17.767Z,76.17
2019-05-10T11:06:26.473Z,76.71
2019-05-10T11:09:35.709Z,76.21
2019-05-10T11:12:44.390Z,76.02
2019-05-10T11:15:53.051Z,76.17
2019-05-10T11:19:03.886Z,74.99
2019-05-10T11:22:11.943Z,76.20
2019-05-10T11:25:30.760Z,76.59
2019-05-10T11:28:43.848Z,76.30
2019-05-10T11:32:10.432Z,76.75
2019-05-10T11:35:00.190Z,74.91
2019-05-10T11:38:12.948Z,74.41
2019-05-10T11:41:24.513Z,75.41
2019-05-10T11:44:33.330Z,74.85
2019-05-10T11:47:41.973Z,75.47
2019-05-10T11:50:51.332Z,73.13
2019-05-10T11:54:01.789Z,74.49
2019-05-10T11:57:13.832Z,73.18
2019-05-10T12:00:28.408Z,72.37
2019-05-10T12:03:31.889Z,74.29
2019-05-10T12:06:49.505Z,73.51
2019-05-10T12:13:15.070Z,72.42
2019-05-10T12:16:16.810Z,72.43
2019-05-10T12:19:24.449Z,71.70
2019-05-10T12:22:38.314Z,70.75
2019-05-10T12:25:59.001Z,71.46
2019-05-10T12:26:15.570Z,73.11
2019-05-10T12:28:53.820Z,72.38
2019-05-10T12:32:02.484Z,72.40
2019-05-10T12:35:11.872Z,72.70
2019-05-10T12:38:31.826Z,72.80
2019-05-10T12:41:48.371Z,71.47
2019-05-10T12:44:55.404Z,69.92
2019-05-10T12:48:02.043Z,69.70
2019-05-10T12:51:12.571Z,70.79
2019-05-10T12:54:23.699Z,69.93
2019-05-10T12:57:28.465Z,70.08
2019-05-10T13:00:37.189Z,68.73
2019-05-10T13:03:45.864Z,67.15
2019-05-10T13:06:54.511Z,66.99
2019-05-10T13:10:07.681Z,67.64
2019-05-10T13:13:17.446Z,67.47
2019-05-10T13:16:39.364Z,65.64
2019-05-10T13:19:52.880Z,66.08
2019-05-10T13:22:58.158Z,67.14
2019-05-10T13:26:06.769Z,66.93
2019-05-10T13:29:25.649Z,65.83
2019-05-10T13:32:34.373Z,66.54
2019-05-10T13:35:44.037Z,64.68
2019-05-10T13:38:52.709Z,64.84
2019-05-10T13:42:03.342Z,62.84
2019-05-10T13:45:11.810Z,62.58
2019-05-10T13:48:20.469Z,63.73
2019-05-10T13:51:39.302Z,62.26
2019-05-10T13:54:47.973Z,63.33
2019-05-10T13:57:56.679Z,61.24
2019-05-10T14:01:06.523Z,61.88
2019-05-10T14:04:15.835Z,62.69
2019-05-10T14:07:24.665Z,59.46
2019-05-10T14:10:33.316Z,59.66
2019-05-10T14:13:43.191Z,59.35
2019-05-10T14:16:51.958Z,59.72
2019-05-10T14:20:02.265Z,60.07
2019-05-10T14:23:21.057Z,58.52
2019-05-10T14:26:29.727Z,57.86
2019-05-10T14:29:38.428Z,56.68
2019-05-10T14:32:47.120Z,57.54
2019-05-10T14:36:01.038Z,58.43
2019-05-10T14:39:07.991Z,57.04
2019-05-10T14:42:16.557Z,55.94
2019-05-10T14:45:25.250Z,57.49
2019-05-10T14:48:35.523Z,57.86
2019-05-10T14:51:58.314Z,57.24
2019-05-10T14:54:56.824Z,55.62
2019-05-10T14:58:05.279Z,55.34
2019-05-10T15:01:13.848Z,54.93
2019-05-10T15:04:43.660Z,55.58
2019-05-10T15:07:32.889Z,55.01
2019-05-10T15:10:41.816Z,53.99
2019-05-10T15:13:50.669Z,55.07
2019-05-10T15:16:59.279Z,54.75
2019-05-10T15:20:08.341Z,54.50
2019-05-10T15:23:16.955Z,53.34
2019-05-10T15:26:25.671Z,52.40
2019-05-10T15:29:34.510Z,52.74
2019-05-10T15:32:41.630Z,52.34
2019-05-10T15:35:51.706Z,52.34
2019-05-10T15:39:00.610Z,52.22
2019-05-10T15:42:22.044Z,53.17
2019-05-10T15:45:30.764Z,53.18
2019-05-10T15:48:41.706Z,52.18
2019-05-10T15:51:56.809Z,52.54
2019-05-10T15:55:00.168Z,53.64
2019-05-10T15:58:08.800Z,53.00
2019-05-10T16:01:29.160Z,53.53
2019-05-10T16:04:48.452Z,52.02
2019-05-10T16:07:57.126Z,51.81
2019-05-10T16:11:18.001Z,52.35
2019-05-10T16:14:16.190Z,52.33
2019-05-10T16:17:24.833Z,52.44
2019-05-10T16:20:37.179Z,53.47
2019-05-10T16:23:46.664Z,52.97
2019-05-10T16:26:54.617Z,52.51
2019-05-10T16:30:06.177Z,53.29
2019-05-10T16:33:15.748Z,53.54
2019-05-10T16:36:28.483Z,54.20
2019-05-10T16:39:35.540Z,53.91
2019-05-10T16:42:47.793Z,54.29
2019-05-10T16:45:57.421Z,54.08
2019-05-10T16:49:17.343Z,54.12
2019-05-10T16:52:27.925Z,52.95
2019-05-10T16:55:35.478Z,52.34
2019-05-10T16:58:47.639Z,53.31
2019-05-10T17:02:03.384Z,53.21
2019-05-10T17:05:09.681Z,52.55
2019-05-10T17:08:18.055Z,53.39
2019-05-10T17:11:26.628Z,54.10
2019-05-10T17:14:45.501Z,54.20
2019-05-10T17:17:54.418Z,54.40
2019-05-10T17:21:04.498Z,54.67
2019-05-10T17:24:13.133Z,55.55
2019-05-10T17:27:21.770Z,55.50
2019-05-10T17:30:30.476Z,55.07
2019-05-10T17:33:42.819Z,55.31
2019-05-10T17:36:51.573Z,55.27
2019-05-10T17:40:04.856Z,54.96
2019-05-10T17:43:14.153Z,54.49
2019-05-10T17:46:21.713Z,54.90
2019-05-10T17:49:30.462Z,54.93
2019-05-10T17:52:58.296Z,55.51
2019-05-10T17:56:06.874Z,55.37
2019-05-10T17:59:15.547Z,55.33
2019-05-10T18:02:24.699Z,55.54
2019-05-10T18:05:46.479Z,55.56
2019-05-10T18:08:54.291Z,54.93
2019-05-10T18:12:02.982Z,54.60
2019-05-10T18:15:12.119Z,54.47
2019-05-10T18:18:20.706Z,55.46
2019-05-10T18:21:29.357Z,55.55
2019-05-10T18:24:42.254Z,56.34
2019-05-10T18:27:48.277Z,56.37
2019-05-10T18:30:56.868Z,56.28
2019-05-10T18:34:05.441Z,56.37
2019-05-10T18:37:15.958Z,56.47
2019-05-10T18:40:40.546Z,56.40
2019-05-10T18:43:49.154Z,57.15
2019-05-10T18:46:57.791Z,57.43
2019-05-10T18:50:08.992Z,57.50
2019-05-10T18:53:47.199Z,57.83
2019-05-10T18:56:55.822Z,58.12
2019-05-10T19:00:04.580Z,58.54
2019-05-10T19:03:13.372Z,59.70
2019-05-10T19:06:21.895Z,59.80
2019-05-10T19:09:30.502Z,59.77
2019-05-10T19:12:39.521Z,59.83
2019-05-10T19:15:53.101Z,59.54
2019-05-10T19:19:02.025Z,60.01
2019-05-10T19:22:10.234Z,60.72
2019-05-10T19:25:19.144Z,60.88
2019-05-10T19:28:28.520Z,60.81
2019-05-10T19:31:40.301Z,60.88
2019-05-10T19:34:48.469Z,61.32
2019-05-10T19:37:57.593Z,60.83
2019-05-10T19:41:06.334Z,61.05
2019-05-10T19:44:14.939Z,61.04
2019-05-10T19:47:33.976Z,61.62
2019-05-10T19:50:42.493Z,61.55
2019-05-10T19:53:51.038Z,61.84
2019-05-10T19:56:59.712Z,62.04
2019-05-10T20:00:08.629Z,61.82
2019-05-10T20:03:17.159Z,62.67
2019-05-10T20:06:25.671Z,62.73
2019-05-10T20:09:34.297Z,62.96
2019-05-10T20:12:53.096Z,63.92
2019-05-10T20:16:01.862Z,64.01
2019-05-10T20:19:10.422Z,63.57
2019-05-10T20:22:18.957Z,63.77
2019-05-10T20:25:27.576Z,64.67
2019-05-10T20:28:36.235Z,64.80
2019-05-10T20:31:44.793Z,65.21
2019-05-10T20:34:53.453Z,65.42
2019-05-10T20:38:12.436Z,65.18
2019-05-10T20:41:21.117Z,66.50
2019-05-10T20:44:29.997Z,66.01
2019-05-10T20:47:38.171Z,65.97
2019-05-10T20:50:46.722Z,65.67
2019-05-10T20:53:55.289Z,65.54
2019-05-10T20:57:14.084Z,65.34
2019-05-10T21:00:24.102Z,65.62
2019-05-10T21:03:32.863Z,65.67
2019-05-10T21:06:41.392Z,66.04
2019-05-10T21:09:49.947Z,66.40
2019-05-10T21:12:58.466Z,66.43
2019-05-10T21:16:17.307Z,67.40
2019-05-10T21:19:25.861Z,67.18
2019-05-10T21:22:34.479Z,66.98
2019-05-10T21:25:43.037Z,67.34
2019-05-10T21:28:51.725Z,67.10
2019-05-10T21:32:00.439Z,67.57
2019-05-10T21:35:08.927Z,67.98
2019-05-10T21:38:32.950Z,68.59
2019-05-10T21:41:38.123Z,69.31
2019-05-10T21:44:46.748Z,69.17
2019-05-10T21:47:55.447Z,69.51
2019-05-10T21:51:04.128Z,69.55
2019-05-10T21:54:12.770Z,69.65
2019-05-10T21:57:21.658Z,69.96
2019-05-10T22:00:35.146Z,70.00
2019-05-10T22:03:43.686Z,70.91
2019-05-10T22:06:52.327Z,70.76
2019-05-10T22:10:11.315Z,70.81
2019-05-10T22:13:19.924Z,71.59
2019-05-10T22:16:28.519Z,71.92
2019-05-10T22:19:37.242Z,71.84
2019-05-10T22:22:47.167Z,71.82
2019-05-10T22:25:54.762Z,72.03
2019-05-10T22:29:03.498Z,72.11
2019-05-10T22:32:11.990Z,72.27
2019-05-10T22:35:20.611Z,72.33
2019-05-10T22:38:30.360Z,71.48
2019-05-10T22:41:38.969Z,71.96
2019-05-10T22:44:47.645Z,73.05
2019-05-10T22:47:56.532Z,74.87
2019-05-10T22:51:05.163Z,75.06
2019-05-10T22:54:14.355Z,74.48
2019-05-10T22:57:22.976Z,74.19
2019-05-10T23:00:42.416Z,74.31
2019-05-10T23:03:50.974Z,74.04
2019-05-10T23:06:59.569Z,74.04
2019-05-10T23:10:08.845Z,73.96
2019-05-10T23:13:17.557Z,74.21
2019-05-10T23:16:26.169Z,74.59
2019-05-10T23:19:34.905Z,73.71
2019-05-10T23:22:43.494Z,74.60
2019-05-10T23:25:52.213Z,75.34
2019-05-10T23:29:01.051Z,75.57
2019-05-10T23:32:09.741Z,75.20
2019-05-10T23:35:18.363Z,75.24
2019-05-10T23:38:27.087Z,75.06
2019-05-10T23:41:35.838Z,74.92
2019-05-10T23:44:44.576Z,75.17
2019-05-10T23:48:03.361Z,75.34
2019-05-10T23:51:11.980Z,74.98
2019-05-10T23:54:20.500Z,75.30
2019-05-10T23:57:29.263Z,74.95
